createdAt,value
2023-02-04T00:00:34.511Z,70.6
2023-02-04T00:01:44.630Z,70.4
2023-02-04T00:02:54.751Z,71.9
2023-02-04T00:04:04.861Z,71.8
2023-02-04T00:05:14.977Z,73.5
2023-02-04T00:06:25.102Z,73.1
2023-02-04T00:07:35.219Z,71.6
2023-02-04T00:08:45.335Z,70.8
2023-02-04T00:09:55.445Z,70.5
2023-02-04T00:11:05.567Z,69.9
2023-02-04T00:12:15.681Z,70
2023-02-04T00:13:25.798Z,70.5
2023-02-04T00:14:35.962Z,70
2023-02-04T00:15:46.130Z,69.7
2023-02-04T00:16:56.288Z,69
2023-02-04T00:18:06.457Z,69.2
2023-02-04T00:19:16.620Z,69.1
2023-02-04T00:20:26.780Z,69.6
2023-02-04T00:21:36.945Z,69.7
2023-02-04T00:22:47.111Z,70.4
2023-02-04T00:23:57.272Z,69.5
2023-02-04T00:25:07.435Z,69.5
2023-02-04T00:26:17.594Z,69.3
2023-02-04T00:27:27.761Z,69
2023-02-04T00:28:37.919Z,69.2
2023-02-04T00:29:48.171Z,69.3
2023-02-04T00:30:58.415Z,69.2
2023-02-04T00:32:08.665Z,68.5
2023-02-04T00:33:18.909Z,68
2023-02-04T00:34:29.157Z,67.6
2023-02-04T00:35:39.400Z,67.8
2023-02-04T00:36:49.645Z,67.2
2023-02-04T00:37:59.890Z,67.3
2023-02-04T00:39:10.131Z,67.8
2023-02-04T00:40:20.379Z,67.2
2023-02-04T00:41:30.629Z,66.9
2023-02-04T00:42:40.869Z,66.9
2023-02-04T00:43:50.138Z,66.4
2023-02-04T00:45:00.245Z,65.9
2023-02-04T00:46:10.364Z,65.1
2023-02-04T00:47:20.485Z,65.2
2023-02-04T00:48:30.597Z,64.7
2023-02-04T00:49:40.713Z,64.2
2023-02-04T00:50:50.835Z,64.1
2023-02-04T00:52:00.960Z,63.9
2023-02-04T00:53:11.069Z,63.5
2023-02-04T00:54:21.187Z,63.1
2023-02-04T00:55:31.299Z,62.7
2023-02-04T00:56:41.417Z,62.7
2023-02-04T00:57:51.538Z,62.5
2023-02-04T00:59:01.650Z,62.4
2023-02-04T01:00:11.770Z,62.3
2023-02-04T01:01:21.886Z,62
2023-02-04T01:02:32.001Z,62
2023-02-04T01:03:42.122Z,62
2023-02-04T01:04:52.232Z,61.4
2023-02-04T01:06:02.356Z,60.8
2023-02-04T01:07:12.475Z,60.4
2023-02-04T01:08:22.589Z,60.3
2023-02-04T01:09:32.703Z,60
2023-02-04T01:10:42.818Z,60.1
2023-02-04T01:11:52.938Z,60.2
2023-02-04T01:13:03.109Z,60
2023-02-04T01:14:13.265Z,60.2
2023-02-04T01:15:23.431Z,60.2
2023-02-04T01:16:33.591Z,59.9
2023-02-04T01:17:43.755Z,59.4
2023-02-04T01:18:53.927Z,60.2
2023-02-04T01:20:04.085Z,60.9
2023-02-04T01:21:14.249Z,61.7
2023-02-04T01:22:24.417Z,62.2
2023-02-04T01:23:34.576Z,61.8
2023-02-04T01:24:44.739Z,60.8
2023-02-04T01:25:54.904Z,60.7
2023-02-04T01:27:05.068Z,60.5
2023-02-04T01:28:15.317Z,60.2
2023-02-04T01:29:25.558Z,59.9
2023-02-04T01:30:35.810Z,59.4
2023-02-04T01:31:46.055Z,59.1
2023-02-04T01:32:56.299Z,59
2023-02-04T01:34:06.544Z,58.7
2023-02-04T01:35:16.790Z,59.4
2023-02-04T01:36:26.049Z,59.6
2023-02-04T01:37:36.173Z,59.8
2023-02-04T01:38:46.284Z,59.6
2023-02-04T01:39:56.408Z,59.5
2023-02-04T01:41:06.519Z,59.6
2023-02-04T01:42:16.640Z,59.7
2023-02-04T01:43:26.755Z,59.6
2023-02-04T01:44:36.876Z,59.6
2023-02-04T01:45:46.988Z,59.4
2023-02-04T01:46:57.108Z,58.8
2023-02-04T01:48:07.227Z,58.3
2023-02-04T01:49:17.346Z,58
2023-02-04T01:50:27.460Z,57.3
2023-02-04T01:51:37.573Z,57
2023-02-04T01:52:47.698Z,56.5
2023-02-04T01:53:57.815Z,56.3
2023-02-04T01:55:07.928Z,56.2
2023-02-04T01:56:18.048Z,56.1
2023-02-04T01:57:28.160Z,55.9
2023-02-04T01:58:38.282Z,55.5
2023-02-04T01:59:48.397Z,55.3
2023-02-04T02:00:58.514Z,55.5
2023-02-04T02:02:08.632Z,55.5
2023-02-04T02:04:28.870Z,55.6
2023-02-04T02:05:39.030Z,55.8
2023-02-04T02:06:49.191Z,56
2023-02-04T02:07:59.362Z,56.2
2023-02-04T02:09:09.519Z,56.6
2023-02-04T02:10:19.684Z,56.7
2023-02-04T02:11:29.852Z,57.3
2023-02-04T02:12:40.012Z,58.1
2023-02-04T02:13:50.179Z,58.4
2023-02-04T02:15:00.341Z,58.6
2023-02-04T02:16:10.502Z,59
2023-02-04T02:17:20.670Z,59
2023-02-04T02:18:30.834Z,59.3
2023-02-04T02:19:40.991Z,59.8
2023-02-04T02:20:51.238Z,59.8
2023-02-04T02:22:01.492Z,59.8
2023-02-04T02:23:11.730Z,59.7
2023-02-04T02:24:21.981Z,59.3
2023-02-04T02:25:32.226Z,58.9
2023-02-04T02:26:42.469Z,58.7
2023-02-04T02:27:52.717Z,58.5
2023-02-04T02:29:02.964Z,57.8
2023-02-04T02:30:13.216Z,57.3
2023-02-04T02:31:23.450Z,57
2023-02-04T02:32:33.700Z,57.1
2023-02-04T02:33:43.949Z,57
2023-02-04T02:34:53.208Z,56.5
2023-02-04T02:36:03.323Z,56.5
2023-02-04T02:37:13.444Z,56.5
2023-02-04T02:38:23.562Z,56.4
2023-02-04T02:39:33.680Z,56.4
2023-02-04T02:40:43.789Z,56.5
2023-02-04T02:41:53.915Z,56.9
2023-02-04T02:43:04.030Z,57
2023-02-04T02:44:14.143Z,57.3
2023-02-04T02:45:24.265Z,57.4
2023-02-04T02:46:34.373Z,57.2
2023-02-04T02:47:44.499Z,57.3
2023-02-04T02:48:54.608Z,57.2
2023-02-04T02:50:04.726Z,57.1
2023-02-04T02:51:14.843Z,57
2023-02-04T02:52:24.958Z,56.9
2023-02-04T02:53:35.082Z,56.5
2023-02-04T02:54:45.197Z,56.5
2023-02-04T02:55:55.313Z,56.3
2023-02-04T02:57:05.428Z,56.5
2023-02-04T02:58:15.550Z,56.4
2023-02-04T02:59:25.667Z,56.1
2023-02-04T03:00:35.780Z,55.9
2023-02-04T03:01:45.901Z,55.9
2023-02-04T03:02:56.011Z,56.1
2023-02-04T03:04:06.184Z,56.2
2023-02-04T03:05:16.339Z,56.3
2023-02-04T03:06:26.505Z,56.4
2023-02-04T03:07:36.665Z,56.5
2023-02-04T03:08:46.829Z,56.5
2023-02-04T03:09:56.997Z,56.5
2023-02-04T03:11:07.164Z,56.8
2023-02-04T03:12:17.318Z,56.4
2023-02-04T03:13:27.482Z,56.4
2023-02-04T03:14:37.648Z,56
2023-02-04T03:15:47.809Z,55.7
2023-02-04T03:16:57.977Z,55.7
2023-02-04T03:18:08.135Z,55.5
2023-02-04T03:19:18.392Z,55.5
2023-02-04T03:20:28.637Z,55.3
2023-02-04T03:21:37.899Z,55.4
2023-02-04T03:22:48.009Z,55.5
2023-02-04T03:23:58.129Z,55.2
2023-02-04T03:25:08.241Z,55.1
2023-02-04T03:26:18.360Z,55.2
2023-02-04T03:27:28.477Z,55.3
2023-02-04T03:28:38.601Z,55.5
2023-02-04T03:29:48.717Z,55.3
2023-02-04T03:30:58.835Z,55
2023-02-04T03:32:08.951Z,54.8
2023-02-04T03:33:19.061Z,54.7
2023-02-04T03:34:29.181Z,54.4
2023-02-04T03:35:39.293Z,54.4
2023-02-04T03:36:49.416Z,54.5
2023-02-04T03:37:59.527Z,54.6
2023-02-04T03:39:09.651Z,54.8
2023-02-04T03:40:19.761Z,54.9
2023-02-04T03:41:29.886Z,55.2
2023-02-04T03:42:39.997Z,55.2
2023-02-04T03:43:50.113Z,55.2
2023-02-04T03:45:00.237Z,54.7
2023-02-04T03:46:10.349Z,54.3
2023-02-04T03:47:20.471Z,54.3
2023-02-04T03:48:30.587Z,54.6
2023-02-04T03:49:40.700Z,54.6
2023-02-04T03:50:50.867Z,54.3
2023-02-04T03:52:01.029Z,54
2023-02-04T03:53:11.187Z,54
2023-02-04T03:54:21.356Z,54
2023-02-04T03:55:31.517Z,54
2023-02-04T03:56:41.685Z,54
2023-02-04T03:57:51.843Z,54
2023-02-04T03:59:02.005Z,54.3
2023-02-04T04:00:12.173Z,54.6
2023-02-04T04:01:22.339Z,54.9
2023-02-04T04:02:32.499Z,55
2023-02-04T04:03:42.661Z,55.1
2023-02-04T04:04:52.819Z,54.9
2023-02-04T04:06:03.077Z,54.9
2023-02-04T04:07:12.335Z,54.9
2023-02-04T04:08:22.450Z,54.8
2023-02-04T04:09:32.566Z,54.7
2023-02-04T04:10:42.689Z,54.7
2023-02-04T04:11:52.801Z,54.6
2023-02-04T04:13:02.915Z,54.6
2023-02-04T04:14:13.033Z,54.5
2023-02-04T04:15:23.157Z,54.6
2023-02-04T04:16:33.271Z,54.6
2023-02-04T04:17:43.390Z,54.5
2023-02-04T04:18:53.506Z,54.4
2023-02-04T04:20:03.620Z,54.2
2023-02-04T04:21:13.740Z,54
2023-02-04T04:22:23.858Z,53.9
2023-02-04T04:23:33.969Z,53.7
2023-02-04T04:24:44.087Z,53.5
2023-02-04T04:25:54.208Z,53.2
2023-02-04T04:27:04.324Z,53
2023-02-04T04:28:14.445Z,52.7
2023-02-04T04:29:24.561Z,52.4
2023-02-04T04:30:34.674Z,52.4
2023-02-04T04:31:44.793Z,52.1
2023-02-04T04:32:54.909Z,51.9
2023-02-04T04:34:05.027Z,51.6
2023-02-04T04:35:15.141Z,51.4
2023-02-04T04:36:25.305Z,51.3
2023-02-04T04:37:35.476Z,51.3
2023-02-04T04:38:45.638Z,51.4
2023-02-04T04:39:55.794Z,51.5
2023-02-04T04:41:05.966Z,51.6
2023-02-04T04:42:16.126Z,51.8
2023-02-04T04:43:26.286Z,51.9
2023-02-04T04:44:36.454Z,51.8
2023-02-04T04:45:46.614Z,51.9
2023-02-04T04:46:56.780Z,51.8
2023-02-04T04:48:06.940Z,52
2023-02-04T04:49:17.108Z,51.9
2023-02-04T04:50:27.270Z,51.9
2023-02-04T04:51:37.518Z,51.8
2023-02-04T04:52:47.766Z,51.6
2023-02-04T04:53:57.029Z,51.5
2023-02-04T04:55:07.143Z,51.5
2023-02-04T04:56:17.258Z,51.3
2023-02-04T04:57:27.372Z,51.3
2023-02-04T04:58:37.489Z,51.1
2023-02-04T04:59:47.614Z,51
2023-02-04T05:00:57.725Z,50.9
2023-02-04T05:02:07.842Z,50.8
2023-02-04T05:03:17.957Z,50.6
2023-02-04T05:04:28.075Z,50.6
2023-02-04T05:05:38.196Z,50.5
2023-02-04T05:06:48.307Z,50.5
2023-02-04T05:07:58.425Z,50.4
2023-02-04T05:09:08.546Z,50.3
2023-02-04T05:10:18.658Z,50.3
2023-02-04T05:11:28.775Z,50.1
2023-02-04T05:12:38.899Z,49.9
2023-02-04T05:13:49.009Z,49.7
2023-02-04T05:14:59.133Z,49.5
2023-02-04T05:16:09.247Z,49.5
2023-02-04T05:17:19.363Z,49.4
2023-02-04T05:18:29.485Z,49.4
2023-02-04T05:19:39.597Z,49.4
2023-02-04T05:20:49.711Z,49.4
2023-02-04T05:21:59.827Z,49.4
2023-02-04T05:23:09.992Z,49.3
2023-02-04T05:24:20.156Z,49.1
2023-02-04T05:25:30.322Z,49.4
2023-02-04T05:26:40.487Z,49.4
2023-02-04T05:27:50.645Z,49.7
2023-02-04T05:29:00.812Z,49.7
2023-02-04T05:30:10.975Z,49.8
2023-02-04T05:31:21.137Z,49.9
2023-02-04T05:32:31.304Z,50.1
2023-02-04T05:33:41.466Z,50.1
2023-02-04T05:34:51.628Z,50
2023-02-04T05:36:01.789Z,50
2023-02-04T05:37:11.957Z,50.1
2023-02-04T05:38:22.209Z,50.3
2023-02-04T05:39:32.454Z,50.4
2023-02-04T05:40:42.692Z,50.4
2023-02-04T05:41:52.945Z,50.4
2023-02-04T05:43:03.185Z,50.4
2023-02-04T05:44:13.433Z,50.4
2023-02-04T05:45:23.675Z,50.5
2023-02-04T05:46:33.923Z,50.9
2023-02-04T05:47:44.176Z,50.8
2023-02-04T05:48:54.420Z,51
2023-02-04T05:50:04.662Z,51
2023-02-04T05:51:14.914Z,51
2023-02-04T05:52:25.158Z,51.1
2023-02-04T05:53:35.587Z,51.1
2023-02-04T05:55:12.136Z,51.3
2023-02-04T05:56:21.559Z,51.3
2023-02-04T05:57:31.676Z,51.4
2023-02-04T05:58:41.789Z,51.4
2023-02-04T05:59:51.910Z,51.5
2023-02-04T06:01:02.028Z,51.7
2023-02-04T06:02:12.143Z,51.6
2023-02-04T06:03:22.261Z,51.7
2023-02-04T06:04:32.375Z,51.6
2023-02-04T06:05:42.497Z,52
2023-02-04T06:06:52.613Z,52.5
2023-02-04T06:08:02.727Z,52.4
2023-02-04T06:09:12.846Z,52.3
2023-02-04T06:10:22.963Z,52.6
2023-02-04T06:11:33.075Z,53
2023-02-04T06:12:43.193Z,53
2023-02-04T06:13:53.314Z,53
2023-02-04T06:15:03.438Z,53.4
2023-02-04T06:16:13.546Z,53.1
2023-02-04T06:17:23.662Z,53.6
2023-02-04T06:18:33.782Z,53.9
2023-02-04T06:19:43.898Z,54
2023-02-04T06:20:54.016Z,54.3
2023-02-04T06:22:04.128Z,54.5
2023-02-04T06:23:14.248Z,54.4
2023-02-04T06:24:24.370Z,54.3
2023-02-04T06:25:34.535Z,54.3
2023-02-04T06:26:44.698Z,54.3
2023-02-04T06:27:54.856Z,54.2
2023-02-04T06:29:05.022Z,54.2
2023-02-04T06:30:15.180Z,54.4
2023-02-04T06:31:25.348Z,54.8
2023-02-04T06:32:35.506Z,55.1
2023-02-04T06:33:45.673Z,55.1
2023-02-04T06:34:55.841Z,55.3
2023-02-04T06:36:05.998Z,55.3
2023-02-04T06:37:16.162Z,55.4
2023-02-04T06:38:26.328Z,55.3
2023-02-04T06:39:36.490Z,55.1
2023-02-04T06:40:46.737Z,55.3
2023-02-04T06:41:56.984Z,55.3
2023-02-04T06:43:07.230Z,55.3
2023-02-04T06:44:17.473Z,55.2
2023-02-04T06:45:27.717Z,55.1
2023-02-04T06:46:37.962Z,54.8
2023-02-04T06:47:48.217Z,54.8
2023-02-04T06:48:58.460Z,54.9
2023-02-04T06:50:08.700Z,54.8
2023-02-04T06:51:18.950Z,54.9
2023-02-04T06:52:29.196Z,55.1
2023-02-04T06:53:38.460Z,55.2
2023-02-04T06:54:48.570Z,55.2
2023-02-04T06:55:58.692Z,54.9
2023-02-04T06:57:08.806Z,54.6
2023-02-04T06:58:18.923Z,54.5
2023-02-04T06:59:29.045Z,54.4
2023-02-04T07:00:39.164Z,54.2
2023-02-04T07:01:49.280Z,54.1
2023-02-04T07:02:59.397Z,53.9
2023-02-04T07:04:09.512Z,53.8
2023-02-04T07:05:19.628Z,53.8
2023-02-04T07:06:29.744Z,53.7
2023-02-04T07:07:39.858Z,53.6
2023-02-04T07:08:49.981Z,53.5
2023-02-04T07:10:00.096Z,53.5
2023-02-04T07:11:10.212Z,53.4
2023-02-04T07:12:20.333Z,53.4
2023-02-04T07:13:30.441Z,53.4
2023-02-04T07:14:40.565Z,53.4
2023-02-04T07:15:50.675Z,53.4
2023-02-04T07:17:00.793Z,53.4
2023-02-04T07:18:10.913Z,53.4
2023-02-04T07:19:21.033Z,53.3
2023-02-04T07:20:31.143Z,53.3
2023-02-04T07:21:41.263Z,53.2
2023-02-04T07:22:51.435Z,53.1
2023-02-04T07:24:01.597Z,53
2023-02-04T07:25:11.760Z,52.7
2023-02-04T07:26:21.916Z,52.5
2023-02-04T07:27:32.080Z,52.3
2023-02-04T07:28:42.252Z,52.3
2023-02-04T07:29:52.411Z,52.2
2023-02-04T07:31:02.572Z,52.1
2023-02-04T07:32:12.740Z,52
2023-02-04T07:33:22.902Z,52.1
2023-02-04T07:34:33.064Z,52.3
2023-02-04T07:35:43.226Z,52.4
2023-02-04T07:36:53.389Z,52.6
2023-02-04T07:38:03.642Z,52.6
2023-02-04T07:39:13.886Z,52.7
2023-02-04T07:40:24.130Z,52.7
2023-02-04T07:41:34.378Z,52.6
2023-02-04T07:42:44.623Z,52.6
2023-02-04T07:43:54.863Z,52.5
2023-02-04T07:45:05.114Z,52.4
2023-02-04T07:46:15.361Z,52.1
2023-02-04T07:47:25.605Z,51.9
2023-02-04T07:48:35.849Z,51.7
2023-02-04T07:49:46.100Z,51.7
2023-02-04T07:50:56.339Z,51.7
2023-02-04T07:52:06.586Z,51.8
2023-02-04T07:54:44.430Z,51.6
2023-02-04T07:55:53.901Z,51.3
2023-02-04T07:57:04.064Z,51.2
2023-02-04T07:58:14.228Z,51.1
2023-02-04T07:59:24.398Z,51.3
2023-02-04T08:00:34.562Z,51.3
2023-02-04T08:01:44.724Z,51.3
2023-02-04T08:02:54.885Z,51.1
2023-02-04T08:04:05.047Z,50.9
2023-02-04T08:05:15.209Z,50.8
2023-02-04T08:06:25.373Z,50.6
2023-02-04T08:07:35.535Z,50.5
2023-02-04T08:08:45.701Z,50.3
2023-02-04T08:09:55.862Z,50.3
2023-02-04T08:11:06.031Z,50.4
2023-02-04T08:12:16.191Z,50.7
2023-02-04T08:13:26.356Z,50.8
2023-02-04T08:14:36.522Z,51
2023-02-04T08:15:46.676Z,51
2023-02-04T08:16:56.846Z,50.9
2023-02-04T08:18:07.009Z,51
2023-02-04T08:19:17.173Z,50.9
2023-02-04T08:20:27.334Z,50.9
2023-02-04T08:21:37.499Z,50.6
2023-02-04T08:22:47.658Z,50.5
2023-02-04T08:23:57.827Z,50.1
2023-02-04T08:25:08.073Z,50.1
2023-02-04T08:26:18.319Z,49.9
2023-02-04T08:27:28.567Z,49.9
2023-02-04T08:28:38.809Z,49.9
2023-02-04T08:29:49.053Z,49.9
2023-02-04T08:30:59.303Z,49.9
2023-02-04T08:32:09.549Z,49.7
2023-02-04T08:33:19.789Z,49.7
2023-02-04T08:34:30.037Z,49.7
2023-02-04T08:35:40.281Z,49.6
2023-02-04T08:36:50.528Z,49.5
2023-02-04T08:38:00.779Z,49.3
2023-02-04T08:39:11.020Z,49.4
2023-02-04T08:40:20.286Z,49.4
2023-02-04T08:41:30.402Z,49.4
2023-02-04T08:42:40.516Z,49.3
2023-02-04T08:43:50.631Z,49.2
2023-02-04T08:45:00.754Z,49
2023-02-04T08:46:10.864Z,48.8
2023-02-04T08:47:20.986Z,48.8
2023-02-04T08:48:31.102Z,48.7
2023-02-04T08:49:41.213Z,48.6
2023-02-04T08:50:51.336Z,48.5
2023-02-04T08:52:01.455Z,48.4
2023-02-04T08:53:11.567Z,48.3
2023-02-04T08:54:21.685Z,48.2
2023-02-04T08:55:31.797Z,48.1
2023-02-04T08:56:41.917Z,48
2023-02-04T08:57:52.031Z,47.9
2023-02-04T09:00:12.269Z,47.9
2023-02-04T09:01:22.387Z,47.8
2023-02-04T09:02:32.500Z,47.7
2023-02-04T09:03:42.623Z,47.7
2023-02-04T09:04:52.734Z,47.7
2023-02-04T09:06:02.855Z,47.7
2023-02-04T09:07:12.973Z,47.6
2023-02-04T09:08:23.087Z,47.5
2023-02-04T09:09:33.252Z,47.4
2023-02-04T09:10:43.413Z,47.3
2023-02-04T09:11:53.577Z,47.3
2023-02-04T09:13:03.738Z,47.2
2023-02-04T09:14:13.904Z,47.6
2023-02-04T09:15:24.070Z,47.9
2023-02-04T09:16:34.236Z,48
2023-02-04T09:17:44.398Z,48.1
2023-02-04T09:18:54.560Z,48.1
2023-02-04T09:20:04.723Z,48.1
2023-02-04T09:21:14.886Z,48
2023-02-04T09:22:25.053Z,48
2023-02-04T09:23:35.213Z,47.9
2023-02-04T09:24:45.457Z,47.9
2023-02-04T09:25:55.703Z,48
2023-02-04T09:27:05.951Z,47.9
2023-02-04T09:28:16.201Z,48
2023-02-04T09:29:26.441Z,48.3
2023-02-04T09:30:36.687Z,48.7
2023-02-04T09:31:46.933Z,48.9
2023-02-04T09:32:57.179Z,49.5
2023-02-04T09:34:07.423Z,50.5
2023-02-04T09:35:17.672Z,50.8
2023-02-04T09:36:27.918Z,51.3
2023-02-04T09:37:38.158Z,51.6
2023-02-04T09:38:48.407Z,52.3
2023-02-04T09:41:26.223Z,52.7
2023-02-04T09:42:36.654Z,53.4
2023-02-04T09:43:47.090Z,53.6
2023-02-04T09:44:57.518Z,53.7
2023-02-04T09:46:06.951Z,53.6
2023-02-04T09:47:17.068Z,53.7
2023-02-04T09:48:27.180Z,53.6
2023-02-04T09:49:37.298Z,53.6
2023-02-04T09:50:47.410Z,54
2023-02-04T09:51:57.530Z,55.7
2023-02-04T09:53:07.650Z,56.6
2023-02-04T09:54:17.768Z,57.7
2023-02-04T09:55:27.880Z,58.5
2023-02-04T09:56:38.004Z,59.7
2023-02-04T09:57:48.120Z,60.8
2023-02-04T09:58:58.233Z,61.1
2023-02-04T10:00:08.352Z,61.7
2023-02-04T10:01:18.467Z,62.8
2023-02-04T10:02:28.588Z,64.6
2023-02-04T10:03:38.702Z,65.2
2023-02-04T10:04:48.820Z,65.5
2023-02-04T10:05:58.932Z,67.1
2023-02-04T10:07:09.058Z,66.6
2023-02-04T10:08:19.170Z,66.5
2023-02-04T10:09:29.287Z,66.8
2023-02-04T10:10:39.408Z,67
2023-02-04T10:11:49.519Z,68.6
2023-02-04T10:12:59.635Z,68.6
2023-02-04T10:14:09.752Z,69
2023-02-04T10:15:19.919Z,69.7
2023-02-04T10:16:30.084Z,69.8
2023-02-04T10:17:40.247Z,69.7
2023-02-04T10:18:50.411Z,69.3
2023-02-04T10:20:00.578Z,69.2
2023-02-04T10:21:10.741Z,69.5
2023-02-04T10:22:20.901Z,70
2023-02-04T10:23:31.065Z,70.4
2023-02-04T10:24:41.227Z,71.3
2023-02-04T10:25:51.397Z,72
2023-02-04T10:27:01.551Z,73.3
2023-02-04T10:29:21.877Z,73.4
2023-02-04T10:30:32.127Z,74.5
2023-02-04T10:31:42.380Z,75.4
2023-02-04T10:32:52.621Z,75.7
2023-02-04T10:34:02.863Z,75
2023-02-04T10:35:13.108Z,75.6
2023-02-04T10:36:23.355Z,75
2023-02-04T10:37:33.599Z,77
2023-02-04T10:38:43.848Z,77.9
2023-02-04T10:39:54.099Z,79.1
2023-02-04T10:42:14.587Z,79.1
2023-02-04T10:43:24.834Z,78.6
2023-02-04T10:44:35.074Z,77.7
2023-02-04T10:45:45.509Z,78.4
2023-02-04T10:47:22.055Z,80.7
2023-02-04T10:48:32.481Z,80.7
2023-02-04T10:49:42.913Z,80.4
2023-02-04T10:50:52.345Z,80.9
2023-02-04T10:52:02.462Z,81.1
2023-02-04T10:53:12.575Z,80.8
2023-02-04T10:54:22.692Z,80.9
2023-02-04T10:55:32.806Z,82.3
2023-02-04T10:56:42.922Z,81.7
2023-02-04T10:57:53.038Z,83
2023-02-04T10:59:03.156Z,82.5
2023-02-04T11:00:13.275Z,82.4
2023-02-04T11:01:23.394Z,80.5
2023-02-04T11:02:33.509Z,80.8
2023-02-04T11:03:43.629Z,80.4
2023-02-04T11:04:53.747Z,80.3
2023-02-04T11:06:03.864Z,79.5
2023-02-04T11:07:13.971Z,79.5
2023-02-04T11:08:24.091Z,79.3
2023-02-04T11:09:34.207Z,79.3
2023-02-04T11:10:44.330Z,80.7
2023-02-04T11:11:54.443Z,80.5
2023-02-04T11:13:04.557Z,80.7
2023-02-04T11:14:14.679Z,81.3
2023-02-04T11:15:24.789Z,80.3
2023-02-04T11:16:34.909Z,79.9
2023-02-04T11:17:45.025Z,79.4
2023-02-04T11:18:55.141Z,78.8
2023-02-04T11:20:05.310Z,78.8
2023-02-04T11:21:15.470Z,80.1
2023-02-04T11:22:25.640Z,79.8
2023-02-04T11:23:35.799Z,78.1
2023-02-04T11:24:45.965Z,79
2023-02-04T11:25:56.129Z,80.8
2023-02-04T11:27:06.284Z,81.3
2023-02-04T11:28:16.456Z,80.8
2023-02-04T11:29:26.613Z,81.8
2023-02-04T11:30:36.776Z,82.2
2023-02-04T11:31:46.940Z,81.3
2023-02-04T11:32:57.102Z,81.2
2023-02-04T11:34:07.263Z,81.5
2023-02-04T11:35:17.513Z,81
2023-02-04T11:36:27.762Z,80.7
2023-02-04T11:37:38.009Z,81.6
2023-02-04T11:38:48.255Z,81.9
2023-02-04T11:39:58.493Z,81.6
2023-02-04T11:41:08.739Z,82.1
2023-02-04T11:42:18.992Z,85.3
2023-02-04T11:43:29.229Z,85.8
2023-02-04T11:44:39.477Z,84.6
2023-02-04T11:45:49.729Z,83.9
2023-02-04T11:46:59.965Z,83.6
2023-02-04T11:48:10.213Z,84.6
2023-02-04T11:49:20.464Z,84.5
2023-02-04T11:50:30.897Z,85.8
2023-02-04T11:52:07.436Z,85.4
2023-02-04T11:53:16.917Z,84.3
2023-02-04T11:54:27.079Z,84.1
2023-02-04T11:55:37.245Z,85.5
2023-02-04T11:56:47.410Z,85.3
2023-02-04T18:23:15.623Z,60.7
2023-02-04T18:24:25.746Z,61.3
2023-02-04T18:25:35.854Z,62.6
2023-02-04T18:26:45.972Z,63.6
2023-02-04T18:27:56.088Z,64.1
